sensor_id;sensor_type;location;lat;lon;timestamp;P1;durP1;ratioP1;P2;durP2;ratioP2
37905;SDS011;23739;51.448;6.674;2024-03-23T00:54:51;7.43;;;3.35;;
37905;SDS011;23739;51.448;6.674;2024-03-23T00:57:17;10.25;;;3.70;;
37905;SDS011;23739;51.448;6.674;2024-03-23T00:59:43;7.30;;;3.20;;
37905;SDS011;23739;51.448;6.674;2024-03-23T01:02:09;10.18;;;2.38;;
37905;SDS011;23739;51.448;6.674;2024-03-23T01:04:36;12.43;;;3.22;;
37905;SDS011;23739;51.448;6.674;2024-03-23T01:07:02;9.20;;;2.25;;
37905;SDS011;23739;51.448;6.674;2024-03-23T01:09:28;10.95;;;2.60;;
37905;SDS011;23739;51.448;6.674;2024-03-23T01:11:54;10.98;;;2.38;;
37905;SDS011;23739;51.448;6.674;2024-03-23T01:14:20;6.65;;;1.80;;
37905;SDS011;23739;51.448;6.674;2024-03-23T01:16:46;6.28;;;2.00;;
37905;SDS011;23739;51.448;6.674;2024-03-23T01:19:12;6.78;;;1.83;;
37905;SDS011;23739;51.448;6.674;2024-03-23T01:21:38;18.20;;;3.67;;
37905;SDS011;23739;51.448;6.674;2024-03-23T01:24:04;7.45;;;2.30;;
37905;SDS011;23739;51.448;6.674;2024-03-23T01:26:30;8.50;;;1.50;;
37905;SDS011;23739;51.448;6.674;2024-03-23T01:28:56;13.65;;;1.90;;
37905;SDS011;23739;51.448;6.674;2024-03-23T01:31:22;9.70;;;1.67;;
37905;SDS011;23739;51.448;6.674;2024-03-23T01:33:48;10.55;;;2.78;;
37905;SDS011;23739;51.448;6.674;2024-03-23T01:36:14;11.20;;;2.20;;
37905;SDS011;23739;51.448;6.674;2024-03-23T01:38:40;8.18;;;1.67;;
37905;SDS011;23739;51.448;6.674;2024-03-23T01:41:06;6.70;;;1.80;;
37905;SDS011;23739;51.448;6.674;2024-03-23T01:43:32;8.50;;;1.60;;
37905;SDS011;23739;51.448;6.674;2024-03-23T01:45:58;8.18;;;2.10;;
37905;SDS011;23739;51.448;6.674;2024-03-23T01:48:24;7.47;;;2.13;;
37905;SDS011;23739;51.448;6.674;2024-03-23T01:50:50;8.73;;;1.70;;
37905;SDS011;23739;51.448;6.674;2024-03-23T01:53:16;10.90;;;2.53;;
37905;SDS011;23739;51.448;6.674;2024-03-23T01:55:44;9.45;;;1.90;;
37905;SDS011;23739;51.448;6.674;2024-03-23T01:58:10;7.90;;;2.10;;
37905;SDS011;23739;51.448;6.674;2024-03-23T02:00:36;7.85;;;2.03;;
37905;SDS011;23739;51.448;6.674;2024-03-23T02:03:03;11.90;;;2.25;;
37905;SDS011;23739;51.448;6.674;2024-03-23T02:05:47;6.68;;;1.92;;
37905;SDS011;23739;51.448;6.674;2024-03-23T02:08:13;12.52;;;1.85;;
37905;SDS011;23739;51.448;6.674;2024-03-23T02:10:40;6.55;;;1.88;;
37905;SDS011;23739;51.448;6.674;2024-03-23T02:13:06;6.00;;;1.40;;
37905;SDS011;23739;51.448;6.674;2024-03-23T02:15:32;7.32;;;1.70;;
37905;SDS011;23739;51.448;6.674;2024-03-23T02:17:58;7.30;;;1.60;;
37905;SDS011;23739;51.448;6.674;2024-03-23T02:20:24;4.45;;;1.88;;
37905;SDS011;23739;51.448;6.674;2024-03-23T02:22:51;4.78;;;1.70;;
37905;SDS011;23739;51.448;6.674;2024-03-23T02:25:18;8.55;;;1.67;;
37905;SDS011;23739;51.448;6.674;2024-03-23T02:27:44;7.53;;;1.45;;
37905;SDS011;23739;51.448;6.674;2024-03-23T02:30:10;10.07;;;1.83;;
37905;SDS011;23739;51.448;6.674;2024-03-23T02:32:36;7.55;;;1.80;;
37905;SDS011;23739;51.448;6.674;2024-03-23T02:35:02;9.65;;;2.72;;
37905;SDS011;23739;51.448;6.674;2024-03-23T02:37:28;5.63;;;2.25;;
37905;SDS011;23739;51.448;6.674;2024-03-23T02:39:54;7.95;;;2.30;;
37905;SDS011;23739;51.448;6.674;2024-03-23T02:42:20;9.80;;;1.80;;
37905;SDS011;23739;51.448;6.674;2024-03-23T02:44:46;7.63;;;2.15;;
37905;SDS011;23739;51.448;6.674;2024-03-23T02:47:12;6.18;;;1.52;;
37905;SDS011;23739;51.448;6.674;2024-03-23T02:49:38;5.55;;;1.92;;
37905;SDS011;23739;51.448;6.674;2024-03-23T02:52:04;7.20;;;1.92;;
37905;SDS011;23739;51.448;6.674;2024-03-23T02:54:30;7.45;;;1.70;;
37905;SDS011;23739;51.448;6.674;2024-03-23T02:56:56;5.25;;;1.67;;
37905;SDS011;23739;51.448;6.674;2024-03-23T02:59:22;10.07;;;2.35;;
37905;SDS011;23739;51.448;6.674;2024-03-23T03:01:48;7.53;;;1.90;;
37905;SDS011;23739;51.448;6.674;2024-03-23T03:04:14;12.00;;;2.00;;
37905;SDS011;23739;51.448;6.674;2024-03-23T03:06:40;7.80;;;1.98;;
37905;SDS011;23739;51.448;6.674;2024-03-23T03:09:06;11.63;;;2.35;;
37905;SDS011;23739;51.448;6.674;2024-03-23T03:11:33;9.77;;;2.33;;
37905;SDS011;23739;51.448;6.674;2024-03-23T03:13:59;7.32;;;2.25;;
37905;SDS011;23739;51.448;6.674;2024-03-23T03:16:25;10.13;;;2.40;;
37905;SDS011;23739;51.448;6.674;2024-03-23T03:18:51;13.27;;;3.10;;
37905;SDS011;23739;51.448;6.674;2024-03-23T03:21:18;8.45;;;3.08;;
37905;SDS011;23739;51.448;6.674;2024-03-23T03:23:44;12.00;;;2.50;;
37905;SDS011;23739;51.448;6.674;2024-03-23T03:26:10;7.85;;;2.25;;
37905;SDS011;23739;51.448;6.674;2024-03-23T03:28:36;6.88;;;2.80;;
37905;SDS011;23739;51.448;6.674;2024-03-23T03:31:02;11.25;;;2.42;;
37905;SDS011;23739;51.448;6.674;2024-03-23T03:33:28;11.95;;;2.38;;
37905;SDS011;23739;51.448;6.674;2024-03-23T03:35:54;9.57;;;2.08;;
37905;SDS011;23739;51.448;6.674;2024-03-23T03:38:20;7.20;;;2.47;;
37905;SDS011;23739;51.448;6.674;2024-03-23T03:40:47;6.10;;;2.15;;
37905;SDS011;23739;51.448;6.674;2024-03-23T03:43:13;8.65;;;3.70;;
37905;SDS011;23739;51.448;6.674;2024-03-23T03:45:39;6.05;;;2.33;;
37905;SDS011;23739;51.448;6.674;2024-03-23T03:48:06;10.73;;;1.70;;
37905;SDS011;23739;51.448;6.674;2024-03-23T03:50:32;9.68;;;2.60;;
37905;SDS011;23739;51.448;6.674;2024-03-23T03:52:58;10.93;;;2.75;;
37905;SDS011;23739;51.448;6.674;2024-03-23T03:55:24;4.28;;;1.80;;
37905;SDS011;23739;51.448;6.674;2024-03-23T03:57:50;10.18;;;2.03;;
37905;SDS011;23739;51.448;6.674;2024-03-23T04:00:16;3.33;;;1.98;;
37905;SDS011;23739;51.448;6.674;2024-03-23T04:02:42;13.73;;;3.60;;
37905;SDS011;23739;51.448;6.674;2024-03-23T04:05:08;10.55;;;2.67;;
37905;SDS011;23739;51.448;6.674;2024-03-23T04:07:34;9.25;;;2.88;;
37905;SDS011;23739;51.448;6.674;2024-03-23T04:10:00;10.82;;;2.95;;
37905;SDS011;23739;51.448;6.674;2024-03-23T04:12:27;12.82;;;3.25;;
37905;SDS011;23739;51.448;6.674;2024-03-23T04:14:53;10.48;;;3.75;;
37905;SDS011;23739;51.448;6.674;2024-03-23T04:17:19;6.28;;;2.35;;
37905;SDS011;23739;51.448;6.674;2024-03-23T04:19:45;7.60;;;3.05;;
37905;SDS011;23739;51.448;6.674;2024-03-23T04:22:12;13.15;;;2.60;;
37905;SDS011;23739;51.448;6.674;2024-03-23T04:24:38;16.98;;;4.00;;
37905;SDS011;23739;51.448;6.674;2024-03-23T04:27:04;12.35;;;3.55;;
37905;SDS011;23739;51.448;6.674;2024-03-23T04:29:30;12.15;;;3.75;;
37905;SDS011;23739;51.448;6.674;2024-03-23T04:31:56;14.02;;;3.60;;
37905;SDS011;23739;51.448;6.674;2024-03-23T04:34:23;14.82;;;4.07;;
37905;SDS011;23739;51.448;6.674;2024-03-23T04:36:49;10.77;;;4.22;;
37905;SDS011;23739;51.448;6.674;2024-03-23T04:39:15;10.55;;;4.07;;
37905;SDS011;23739;51.448;6.674;2024-03-23T04:41:41;13.77;;;3.70;;
37905;SDS011;23739;51.448;6.674;2024-03-23T04:44:07;13.48;;;4.10;;
37905;SDS011;23739;51.448;6.674;2024-03-23T04:46:33;13.32;;;4.22;;
37905;SDS011;23739;51.448;6.674;2024-03-23T04:48:59;11.73;;;4.38;;
37905;SDS011;23739;51.448;6.674;2024-03-23T04:51:25;15.68;;;4.82;;
37905;SDS011;23739;51.448;6.674;2024-03-23T04:53:52;12.07;;;4.38;;
37905;SDS011;23739;51.448;6.674;2024-03-23T04:56:18;11.75;;;3.53;;
37905;SDS011;23739;51.448;6.674;2024-03-23T04:58:44;13.93;;;4.32;;
37905;SDS011;23739;51.448;6.674;2024-03-23T05:01:11;10.27;;;3.45;;
37905;SDS011;23739;51.448;6.674;2024-03-23T05:03:37;11.93;;;4.10;;
37905;SDS011;23739;51.448;6.674;2024-03-23T05:06:04;19.35;;;6.32;;
37905;SDS011;23739;51.448;6.674;2024-03-23T05:08:30;15.30;;;4.28;;
37905;SDS011;23739;51.448;6.674;2024-03-23T05:10:56;15.10;;;3.78;;
37905;SDS011;23739;51.448;6.674;2024-03-23T05:13:22;11.70;;;4.32;;
37905;SDS011;23739;51.448;6.674;2024-03-23T05:15:54;11.70;;;4.55;;
37905;SDS011;23739;51.448;6.674;2024-03-23T05:18:21;15.18;;;4.93;;
37905;SDS011;23739;51.448;6.674;2024-03-23T05:20:47;16.75;;;4.97;;
37905;SDS011;23739;51.448;6.674;2024-03-23T05:23:13;14.88;;;4.47;;
37905;SDS011;23739;51.448;6.674;2024-03-23T05:25:40;18.25;;;5.70;;
37905;SDS011;23739;51.448;6.674;2024-03-23T05:28:06;19.83;;;4.45;;
37905;SDS011;23739;51.448;6.674;2024-03-23T05:30:32;14.82;;;6.15;;
37905;SDS011;23739;51.448;6.674;2024-03-23T05:32:58;13.00;;;4.90;;
37905;SDS011;23739;51.448;6.674;2024-03-23T05:35:24;15.52;;;5.18;;
37905;SDS011;23739;51.448;6.674;2024-03-23T05:37:50;10.30;;;5.90;;
37905;SDS011;23739;51.448;6.674;2024-03-23T05:40:16;28.17;;;6.10;;
37905;SDS011;23739;51.448;6.674;2024-03-23T05:42:42;15.75;;;5.00;;
37905;SDS011;23739;51.448;6.674;2024-03-23T05:45:08;15.05;;;6.63;;
37905;SDS011;23739;51.448;6.674;2024-03-23T05:47:36;12.02;;;4.40;;
37905;SDS011;23739;51.448;6.674;2024-03-23T05:50:02;12.85;;;4.63;;
37905;SDS011;23739;51.448;6.674;2024-03-23T05:52:28;10.05;;;4.32;;
37905;SDS011;23739;51.448;6.674;2024-03-23T05:54:54;14.15;;;4.18;;
37905;SDS011;23739;51.448;6.674;2024-03-23T05:57:20;10.75;;;4.47;;
37905;SDS011;23739;51.448;6.674;2024-03-23T05:59:46;13.57;;;4.88;;
37905;SDS011;23739;51.448;6.674;2024-03-23T06:02:12;14.55;;;4.80;;
37905;SDS011;23739;51.448;6.674;2024-03-23T06:04:39;18.52;;;5.03;;
37905;SDS011;23739;51.448;6.674;2024-03-23T06:07:05;13.65;;;5.47;;
37905;SDS011;23739;51.448;6.674;2024-03-23T06:09:32;9.52;;;4.78;;
37905;SDS011;23739;51.448;6.674;2024-03-23T06:11:58;13.40;;;5.45;;
37905;SDS011;23739;51.448;6.674;2024-03-23T06:14:24;13.73;;;6.60;;
37905;SDS011;23739;51.448;6.674;2024-03-23T06:16:51;12.05;;;4.60;;
37905;SDS011;23739;51.448;6.674;2024-03-23T06:19:17;14.27;;;5.75;;
37905;SDS011;23739;51.448;6.674;2024-03-23T06:21:43;18.63;;;7.53;;
37905;SDS011;23739;51.448;6.674;2024-03-23T06:24:10;17.55;;;6.70;;
37905;SDS011;23739;51.448;6.674;2024-03-23T06:26:36;17.38;;;5.78;;
37905;SDS011;23739;51.448;6.674;2024-03-23T06:29:02;21.92;;;7.30;;
37905;SDS011;23739;51.448;6.674;2024-03-23T06:31:30;17.92;;;6.55;;
37905;SDS011;23739;51.448;6.674;2024-03-23T06:33:56;21.70;;;6.85;;
37905;SDS011;23739;51.448;6.674;2024-03-23T06:36:22;17.27;;;6.97;;
37905;SDS011;23739;51.448;6.674;2024-03-23T06:38:48;17.83;;;6.43;;
37905;SDS011;23739;51.448;6.674;2024-03-23T06:41:14;19.65;;;7.88;;
37905;SDS011;23739;51.448;6.674;2024-03-23T06:43:40;18.13;;;8.52;;
37905;SDS011;23739;51.448;6.674;2024-03-23T06:46:06;25.85;;;8.93;;
37905;SDS011;23739;51.448;6.674;2024-03-23T06:48:32;15.32;;;7.93;;
37905;SDS011;23739;51.448;6.674;2024-03-23T06:50:59;25.60;;;9.65;;
37905;SDS011;23739;51.448;6.674;2024-03-23T06:53:25;17.73;;;8.50;;
37905;SDS011;23739;51.448;6.674;2024-03-23T06:55:51;22.35;;;8.90;;
37905;SDS011;23739;51.448;6.674;2024-03-23T06:58:21;17.65;;;7.95;;
37905;SDS011;23739;51.448;6.674;2024-03-23T07:00:47;17.55;;;7.82;;
37905;SDS011;23739;51.448;6.674;2024-03-23T07:03:14;20.30;;;9.65;;
37905;SDS011;23739;51.448;6.674;2024-03-23T07:05:40;21.92;;;9.52;;
37905;SDS011;23739;51.448;6.674;2024-03-23T07:08:07;21.33;;;9.55;;
37905;SDS011;23739;51.448;6.674;2024-03-23T07:10:33;14.88;;;7.88;;
37905;SDS011;23739;51.448;6.674;2024-03-23T07:13:00;17.65;;;6.88;;
37905;SDS011;23739;51.448;6.674;2024-03-23T07:15:26;24.20;;;8.48;;
37905;SDS011;23739;51.448;6.674;2024-03-23T07:17:52;18.92;;;7.88;;
37905;SDS011;23739;51.448;6.674;2024-03-23T07:20:18;18.38;;;7.70;;
37905;SDS011;23739;51.448;6.674;2024-03-23T07:22:45;15.25;;;7.03;;
37905;SDS011;23739;51.448;6.674;2024-03-23T07:25:12;21.25;;;7.47;;
37905;SDS011;23739;51.448;6.674;2024-03-23T07:27:38;20.13;;;6.88;;
37905;SDS011;23739;51.448;6.674;2024-03-23T07:30:05;20.55;;;6.80;;
37905;SDS011;23739;51.448;6.674;2024-03-23T07:32:31;20.70;;;7.25;;
37905;SDS011;23739;51.448;6.674;2024-03-23T07:34:57;23.23;;;6.90;;
37905;SDS011;23739;51.448;6.674;2024-03-23T07:37:23;17.20;;;6.65;;
37905;SDS011;23739;51.448;6.674;2024-03-23T07:39:51;18.40;;;5.97;;
37905;SDS011;23739;51.448;6.674;2024-03-23T07:42:17;14.77;;;6.20;;
37905;SDS011;23739;51.448;6.674;2024-03-23T07:44:43;15.75;;;5.15;;
37905;SDS011;23739;51.448;6.674;2024-03-23T07:47:09;18.67;;;6.50;;
37905;SDS011;23739;51.448;6.674;2024-03-23T07:49:35;11.02;;;4.85;;
37905;SDS011;23739;51.448;6.674;2024-03-23T07:52:01;13.70;;;4.45;;
37905;SDS011;23739;51.448;6.674;2024-03-23T07:54:27;12.65;;;6.05;;
37905;SDS011;23739;51.448;6.674;2024-03-23T07:56:53;15.10;;;5.90;;
37905;SDS011;23739;51.448;6.674;2024-03-23T07:59:20;11.90;;;4.45;;
37905;SDS011;23739;51.448;6.674;2024-03-23T08:01:46;16.35;;;5.38;;
37905;SDS011;23739;51.448;6.674;2024-03-23T08:04:12;16.70;;;4.85;;
37905;SDS011;23739;51.448;6.674;2024-03-23T08:06:38;12.95;;;5.00;;
37905;SDS011;23739;51.448;6.674;2024-03-23T08:09:04;11.82;;;4.50;;
37905;SDS011;23739;51.448;6.674;2024-03-23T08:11:31;14.25;;;5.90;;
37905;SDS011;23739;51.448;6.674;2024-03-23T08:13:59;15.98;;;5.57;;
37905;SDS011;23739;51.448;6.674;2024-03-23T08:16:26;10.13;;;4.50;;
37905;SDS011;23739;51.448;6.674;2024-03-23T08:18:52;16.65;;;4.95;;
37905;SDS011;23739;51.448;6.674;2024-03-23T08:21:19;9.82;;;3.65;;
37905;SDS011;23739;51.448;6.674;2024-03-23T08:23:45;16.27;;;4.05;;
37905;SDS011;23739;51.448;6.674;2024-03-23T08:26:11;15.80;;;4.75;;
37905;SDS011;23739;51.448;6.674;2024-03-23T08:28:38;9.55;;;4.07;;
37905;SDS011;23739;51.448;6.674;2024-03-23T08:31:06;17.95;;;4.43;;
37905;SDS011;23739;51.448;6.674;2024-03-23T08:33:32;7.93;;;3.97;;
37905;SDS011;23739;51.448;6.674;2024-03-23T08:36:02;15.10;;;4.05;;
37905;SDS011;23739;51.448;6.674;2024-03-23T08:38:28;7.28;;;2.05;;
37905;SDS011;23739;51.448;6.674;2024-03-23T08:43:24;5.70;;;2.35;;
37905;SDS011;23739;51.448;6.674;2024-03-23T08:45:51;7.72;;;3.03;;
37905;SDS011;23739;51.448;6.674;2024-03-23T08:48:17;6.28;;;2.22;;
37905;SDS011;23739;51.448;6.674;2024-03-23T08:50:44;8.38;;;2.55;;
37905;SDS011;23739;51.448;6.674;2024-03-23T08:53:10;3.53;;;1.60;;
37905;SDS011;23739;51.448;6.674;2024-03-23T08:55:36;7.45;;;1.88;;
37905;SDS011;23739;51.448;6.674;2024-03-23T08:58:02;4.07;;;1.90;;
37905;SDS011;23739;51.448;6.674;2024-03-23T09:00:29;7.32;;;2.33;;
37905;SDS011;23739;51.448;6.674;2024-03-23T09:02:55;7.53;;;3.17;;
37905;SDS011;23739;51.448;6.674;2024-03-23T09:05:22;13.35;;;4.60;;
37905;SDS011;23739;51.448;6.674;2024-03-23T09:07:49;11.98;;;3.60;;
37905;SDS011;23739;51.448;6.674;2024-03-23T09:10:15;10.15;;;3.58;;
37905;SDS011;23739;51.448;6.674;2024-03-23T09:12:41;7.90;;;3.83;;
37905;SDS011;23739;51.448;6.674;2024-03-23T09:15:07;7.38;;;4.40;;
37905;SDS011;23739;51.448;6.674;2024-03-23T09:17:33;9.02;;;3.97;;
37905;SDS011;23739;51.448;6.674;2024-03-23T09:20:00;11.50;;;3.78;;
37905;SDS011;23739;51.448;6.674;2024-03-23T09:22:26;9.27;;;4.88;;
37905;SDS011;23739;51.448;6.674;2024-03-23T09:24:52;9.45;;;3.33;;
37905;SDS011;23739;51.448;6.674;2024-03-23T09:27:18;8.77;;;3.33;;
37905;SDS011;23739;51.448;6.674;2024-03-23T09:29:44;9.48;;;2.55;;
37905;SDS011;23739;51.448;6.674;2024-03-23T09:32:10;7.32;;;2.78;;
37905;SDS011;23739;51.448;6.674;2024-03-23T09:34:36;9.45;;;3.75;;
37905;SDS011;23739;51.448;6.674;2024-03-23T09:37:02;10.25;;;3.40;;
37905;SDS011;23739;51.448;6.674;2024-03-23T09:39:28;7.93;;;2.45;;
37905;SDS011;23739;51.448;6.674;2024-03-23T09:41:57;11.52;;;2.85;;
37905;SDS011;23739;51.448;6.674;2024-03-23T09:44:24;8.90;;;2.50;;
37905;SDS011;23739;51.448;6.674;2024-03-23T09:46:51;13.45;;;2.47;;
37905;SDS011;23739;51.448;6.674;2024-03-23T09:49:17;9.40;;;2.33;;
37905;SDS011;23739;51.448;6.674;2024-03-23T09:51:43;9.40;;;2.97;;
37905;SDS011;23739;51.448;6.674;2024-03-23T09:54:09;6.70;;;1.70;;
37905;SDS011;23739;51.448;6.674;2024-03-23T09:56:35;11.07;;;2.30;;
37905;SDS011;23739;51.448;6.674;2024-03-23T09:59:02;10.60;;;1.40;;
37905;SDS011;23739;51.448;6.674;2024-03-23T10:01:31;7.53;;;2.00;;
37905;SDS011;23739;51.448;6.674;2024-03-23T10:03:57;4.90;;;1.60;;
37905;SDS011;23739;51.448;6.674;2024-03-23T10:06:23;7.35;;;1.88;;
37905;SDS011;23739;51.448;6.674;2024-03-23T10:08:52;8.55;;;1.77;;
37905;SDS011;23739;51.448;6.674;2024-03-23T10:11:20;10.68;;;2.03;;
37905;SDS011;23739;51.448;6.674;2024-03-23T10:13:46;6.22;;;2.25;;
37905;SDS011;23739;51.448;6.674;2024-03-23T10:16:20;7.80;;;2.63;;
37905;SDS011;23739;51.448;6.674;2024-03-23T10:18:47;8.90;;;2.38;;
37905;SDS011;23739;51.448;6.674;2024-03-23T10:21:13;7.25;;;1.73;;
37905;SDS011;23739;51.448;6.674;2024-03-23T10:23:43;7.97;;;2.45;;
37905;SDS011;23739;51.448;6.674;2024-03-23T10:31:10;6.22;;;1.75;;
37905;SDS011;23739;51.448;6.674;2024-03-23T10:33:38;4.00;;;1.25;;
37905;SDS011;23739;51.448;6.674;2024-03-23T10:36:09;2.65;;;0.70;;
37905;SDS011;23739;51.448;6.674;2024-03-23T10:38:36;2.75;;;0.50;;
37905;SDS011;23739;51.448;6.674;2024-03-23T10:41:02;2.13;;;0.70;;
37905;SDS011;23739;51.448;6.674;2024-03-23T10:43:29;2.90;;;0.80;;
37905;SDS011;23739;51.448;6.674;2024-03-23T10:45:56;3.10;;;0.63;;
37905;SDS011;23739;51.448;6.674;2024-03-23T10:48:23;1.55;;;0.70;;
37905;SDS011;23739;51.448;6.674;2024-03-23T10:50:49;1.92;;;0.63;;
37905;SDS011;23739;51.448;6.674;2024-03-23T10:53:15;5.30;;;1.00;;
37905;SDS011;23739;51.448;6.674;2024-03-23T10:55:42;1.45;;;0.60;;
37905;SDS011;23739;51.448;6.674;2024-03-23T10:58:09;5.95;;;1.80;;
37905;SDS011;23739;51.448;6.674;2024-03-23T11:00:38;4.75;;;1.83;;
37905;SDS011;23739;51.448;6.674;2024-03-23T11:05:49;4.80;;;1.17;;
37905;SDS011;23739;51.448;6.674;2024-03-23T11:08:29;2.08;;;1.17;;
37905;SDS011;23739;51.448;6.674;2024-03-23T11:11:11;4.82;;;1.25;;
37905;SDS011;23739;51.448;6.674;2024-03-23T11:16:23;4.45;;;1.25;;
37905;SDS011;23739;51.448;6.674;2024-03-23T11:18:50;3.85;;;1.50;;
37905;SDS011;23739;51.448;6.674;2024-03-23T11:24:16;6.15;;;1.70;;
37905;SDS011;23739;51.448;6.674;2024-03-23T11:26:43;7.60;;;2.50;;
37905;SDS011;23739;51.448;6.674;2024-03-23T11:29:10;9.32;;;3.03;;
37905;SDS011;23739;51.448;6.674;2024-03-23T11:31:38;7.28;;;2.95;;
37905;SDS011;23739;51.448;6.674;2024-03-23T11:34:05;7.35;;;2.35;;
37905;SDS011;23739;51.448;6.674;2024-03-23T11:36:32;6.88;;;1.73;;
37905;SDS011;23739;51.448;6.674;2024-03-23T11:38:58;6.75;;;1.05;;
37905;SDS011;23739;51.448;6.674;2024-03-23T11:41:24;5.40;;;1.10;;
37905;SDS011;23739;51.448;6.674;2024-03-23T11:43:51;2.10;;;1.10;;
37905;SDS011;23739;51.448;6.674;2024-03-23T11:46:23;4.32;;;1.27;;
37905;SDS011;23739;51.448;6.674;2024-03-23T11:48:49;5.22;;;0.90;;
37905;SDS011;23739;51.448;6.674;2024-03-23T11:51:18;4.32;;;1.13;;
37905;SDS011;23739;51.448;6.674;2024-03-23T11:53:45;2.33;;;0.73;;
37905;SDS011;23739;51.448;6.674;2024-03-23T11:56:11;4.15;;;1.52;;
37905;SDS011;23739;51.448;6.674;2024-03-23T11:58:38;5.28;;;1.20;;
37905;SDS011;23739;51.448;6.674;2024-03-23T12:01:04;6.93;;;1.45;;
37905;SDS011;23739;51.448;6.674;2024-03-23T12:03:36;4.20;;;1.70;;
37905;SDS011;23739;51.448;6.674;2024-03-23T12:06:03;4.63;;;1.83;;
37905;SDS011;23739;51.448;6.674;2024-03-23T12:11:06;3.58;;;1.27;;
37905;SDS011;23739;51.448;6.674;2024-03-23T12:13:34;2.25;;;1.00;;
37905;SDS011;23739;51.448;6.674;2024-03-23T12:16:10;4.32;;;1.88;;
37905;SDS011;23739;51.448;6.674;2024-03-23T12:18:37;1.98;;;0.75;;
37905;SDS011;23739;51.448;6.674;2024-03-23T12:21:03;4.20;;;1.40;;
37905;SDS011;23739;51.448;6.674;2024-03-23T12:23:29;4.43;;;1.08;;
37905;SDS011;23739;51.448;6.674;2024-03-23T12:25:55;6.35;;;1.75;;
37905;SDS011;23739;51.448;6.674;2024-03-23T12:28:22;3.47;;;1.63;;
37905;SDS011;23739;51.448;6.674;2024-03-23T12:30:48;3.88;;;1.73;;
37905;SDS011;23739;51.448;6.674;2024-03-23T12:33:14;4.47;;;1.30;;
37905;SDS011;23739;51.448;6.674;2024-03-23T12:35:40;3.45;;;1.20;;
37905;SDS011;23739;51.448;6.674;2024-03-23T12:38:06;6.70;;;1.77;;
37905;SDS011;23739;51.448;6.674;2024-03-23T12:40:32;4.38;;;1.10;;
37905;SDS011;23739;51.448;6.674;2024-03-23T12:42:58;1.52;;;1.02;;
37905;SDS011;23739;51.448;6.674;2024-03-23T12:45:24;4.80;;;0.82;;
37905;SDS011;23739;51.448;6.674;2024-03-23T12:47:50;2.30;;;1.00;;
37905;SDS011;23739;51.448;6.674;2024-03-23T12:50:20;6.78;;;1.00;;
37905;SDS011;23739;51.448;6.674;2024-03-23T12:52:46;2.95;;;0.75;;
37905;SDS011;23739;51.448;6.674;2024-03-23T12:55:13;2.80;;;1.48;;
37905;SDS011;23739;51.448;6.674;2024-03-23T12:57:39;1.98;;;0.50;;
37905;SDS011;23739;51.448;6.674;2024-03-23T13:00:06;1.85;;;0.63;;
37905;SDS011;23739;51.448;6.674;2024-03-23T13:02:35;2.35;;;0.90;;
37905;SDS011;23739;51.448;6.674;2024-03-23T13:05:01;2.80;;;1.83;;
37905;SDS011;23739;51.448;6.674;2024-03-23T13:07:27;4.07;;;1.00;;
37905;SDS011;23739;51.448;6.674;2024-03-23T13:09:53;3.60;;;2.05;;
37905;SDS011;23739;51.448;6.674;2024-03-23T13:12:21;4.00;;;1.20;;
37905;SDS011;23739;51.448;6.674;2024-03-23T13:14:47;6.10;;;2.03;;
37905;SDS011;23739;51.448;6.674;2024-03-23T13:17:13;4.28;;;2.00;;
37905;SDS011;23739;51.448;6.674;2024-03-23T13:19:40;7.57;;;1.60;;
37905;SDS011;23739;51.448;6.674;2024-03-23T13:22:06;3.58;;;1.15;;
37905;SDS011;23739;51.448;6.674;2024-03-23T13:24:32;1.30;;;0.80;;
37905;SDS011;23739;51.448;6.674;2024-03-23T13:26:59;3.67;;;0.98;;
37905;SDS011;23739;51.448;6.674;2024-03-23T13:29:25;2.15;;;0.93;;
37905;SDS011;23739;51.448;6.674;2024-03-23T13:31:51;2.30;;;0.57;;
37905;SDS011;23739;51.448;6.674;2024-03-23T13:34:17;3.53;;;0.60;;
37905;SDS011;23739;51.448;6.674;2024-03-23T13:36:44;2.38;;;0.73;;
37905;SDS011;23739;51.448;6.674;2024-03-23T13:39:10;2.17;;;0.77;;
37905;SDS011;23739;51.448;6.674;2024-03-23T13:41:40;1.42;;;0.50;;
37905;SDS011;23739;51.448;6.674;2024-03-23T13:44:07;1.02;;;0.30;;
37905;SDS011;23739;51.448;6.674;2024-03-23T13:46:33;1.20;;;0.50;;
37905;SDS011;23739;51.448;6.674;2024-03-23T13:48:59;1.85;;;0.55;;
37905;SDS011;23739;51.448;6.674;2024-03-23T13:51:26;1.33;;;0.45;;
37905;SDS011;23739;51.448;6.674;2024-03-23T13:53:55;1.60;;;0.57;;
37905;SDS011;23739;51.448;6.674;2024-03-23T13:56:24;3.88;;;0.70;;
37905;SDS011;23739;51.448;6.674;2024-03-23T13:58:50;3.83;;;1.10;;
37905;SDS011;23739;51.448;6.674;2024-03-23T14:01:17;4.93;;;1.10;;
37905;SDS011;23739;51.448;6.674;2024-03-23T14:03:43;2.40;;;1.10;;
37905;SDS011;23739;51.448;6.674;2024-03-23T14:06:10;2.90;;;1.17;;
37905;SDS011;23739;51.448;6.674;2024-03-23T14:08:37;5.57;;;1.25;;
37905;SDS011;23739;51.448;6.674;2024-03-23T14:11:07;2.28;;;1.00;;
37905;SDS011;23739;51.448;6.674;2024-03-23T14:13:36;4.45;;;0.77;;
37905;SDS011;23739;51.448;6.674;2024-03-23T14:16:04;5.03;;;1.42;;
37905;SDS011;23739;51.448;6.674;2024-03-23T14:18:31;3.10;;;0.75;;
37905;SDS011;23739;51.448;6.674;2024-03-23T14:21:00;2.55;;;0.80;;
37905;SDS011;23739;51.448;6.674;2024-03-23T14:23:26;2.55;;;0.95;;
37905;SDS011;23739;51.448;6.674;2024-03-23T14:25:55;3.65;;;0.93;;
37905;SDS011;23739;51.448;6.674;2024-03-23T14:28:21;3.53;;;0.60;;
37905;SDS011;23739;51.448;6.674;2024-03-23T14:30:48;5.00;;;0.63;;
37905;SDS011;23739;51.448;6.674;2024-03-23T14:33:14;4.93;;;1.05;;
37905;SDS011;23739;51.448;6.674;2024-03-23T14:35:41;2.10;;;0.70;;
37905;SDS011;23739;51.448;6.674;2024-03-23T14:38:07;4.00;;;0.90;;
37905;SDS011;23739;51.448;6.674;2024-03-23T14:40:33;4.10;;;0.70;;
37905;SDS011;23739;51.448;6.674;2024-03-23T14:42:59;3.72;;;0.60;;
37905;SDS011;23739;51.448;6.674;2024-03-23T14:45:25;2.65;;;1.20;;
37905;SDS011;23739;51.448;6.674;2024-03-23T14:47:51;3.08;;;0.70;;
37905;SDS011;23739;51.448;6.674;2024-03-23T14:50:18;2.33;;;0.82;;
37905;SDS011;23739;51.448;6.674;2024-03-23T14:52:44;6.75;;;1.05;;
37905;SDS011;23739;51.448;6.674;2024-03-23T14:55:13;2.80;;;0.73;;
37905;SDS011;23739;51.448;6.674;2024-03-23T14:57:40;2.45;;;0.73;;
37905;SDS011;23739;51.448;6.674;2024-03-23T15:00:07;4.90;;;0.73;;
37905;SDS011;23739;51.448;6.674;2024-03-23T15:02:35;4.35;;;1.25;;
37905;SDS011;23739;51.448;6.674;2024-03-23T15:05:01;1.65;;;0.70;;
37905;SDS011;23739;51.448;6.674;2024-03-23T15:07:29;3.13;;;0.80;;
37905;SDS011;23739;51.448;6.674;2024-03-23T15:12:58;3.30;;;1.02;;
37905;SDS011;23739;51.448;6.674;2024-03-23T15:15:25;2.13;;;0.80;;
37905;SDS011;23739;51.448;6.674;2024-03-23T15:17:51;1.90;;;0.70;;
37905;SDS011;23739;51.448;6.674;2024-03-23T15:20:17;3.85;;;0.90;;
37905;SDS011;23739;51.448;6.674;2024-03-23T15:22:43;4.13;;;0.90;;
37905;SDS011;23739;51.448;6.674;2024-03-23T15:25:09;1.58;;;0.80;;
37905;SDS011;23739;51.448;6.674;2024-03-23T15:27:35;1.33;;;0.70;;
37905;SDS011;23739;51.448;6.674;2024-03-23T15:30:01;4.75;;;0.90;;
37905;SDS011;23739;51.448;6.674;2024-03-23T15:32:27;2.42;;;0.90;;
37905;SDS011;23739;51.448;6.674;2024-03-23T15:34:53;5.70;;;1.05;;
37905;SDS011;23739;51.448;6.674;2024-03-23T15:37:19;5.90;;;1.48;;
37905;SDS011;23739;51.448;6.674;2024-03-23T15:39:45;1.48;;;0.73;;
37905;SDS011;23739;51.448;6.674;2024-03-23T15:42:12;5.45;;;1.08;;
37905;SDS011;23739;51.448;6.674;2024-03-23T15:44:38;4.75;;;0.60;;
37905;SDS011;23739;51.448;6.674;2024-03-23T15:47:04;4.60;;;0.88;;
37905;SDS011;23739;51.448;6.674;2024-03-23T15:49:30;5.68;;;0.88;;
37905;SDS011;23739;51.448;6.674;2024-03-23T15:51:56;2.63;;;0.95;;
37905;SDS011;23739;51.448;6.674;2024-03-23T15:54:24;3.60;;;0.95;;